Hauptseite
METAR-TAF:

METAR-TAF

Flughäfen :

Flughafen al-Arisch

Al-Arisch, Ägypten

Breite: 31-05N, Länge: 033-49E, Höhe: 31 m

METAR: fehlend

Zeit: 10:18 (08:18 UTC)

Prognose

Neuester Wetterbericht von vor 3 Stunden und 18 Minuten, um 05:00 UTC
Gültige Prognose vom 28 um 06 UTC bis 29 um 12 UTC
Wind 8 kt aus Süd/Südost
Sichtweite 10 km oder mehr
Aufgelockert bewölkt in der Höhe von 2500 ft
Zeitweise
vom 28 um 06 UTC bis 28 um 09 UTC
Wind 3 kt aus unterschiedlichen Richtungen
Sichtweite: 3000 m
feuchter Dunst

TAF: HEAR 280500Z 2806/2912 15008KT 9999 SCT025 TEMPO 2806/2809 VRB03KT 3000 BR

Wetterbeobachtungen und Prognosen von mehr als 4000 Flughäfen (METAR und TAF Bericht).

Die verfügbaren Stationen werden durch gelbe und rote Markierungen auf der Karte dargestellt.

Führen Sie die Maus auf sie, um den Namen der Station zu sehen.

Darauf klicken, um die Beobachtung von Wetterbeobachtungen und Prognosen zu sehen.

Um die Karte zu ändern : klicken Sie auf den grünen Tasten mit einem schwarzen Kreuz Zum Vergrößern, auf den grünen Button mit einem Gedankenstrich zu verkleinern, oder auf die grünen Pfeile für benachbarte Karten.


METAR-TAF: